Latest Weather Observations for Fort Denison

IDN60801

Issued at 6:34 am EST Sunday 28 August 2016 (issued every 30 minutes, with the page automatically refreshed every 10 minutes)

About weather observations | Map of weather stations | Latest weather observations for NSW | Other Formats
Station Details ID: 066022 Name: FORT DENISON Lat: -33.86 Lon: 151.23 Height: 5.0 m
Data from the previous 72 hours. | See also: Recent months for locations in New South Wales
Date/Time
EST
Temp
°C
App
Temp
°C
Dew
Point
°C
Rel
Hum
%
Delta-T
°C
Wind Press
QNH
hPa
Press
MSL
hPa
Rain since
9am
mm
Dir  Spd
km/h
Gust
km/h
Spd
kts
Gust
kts
28/06:30am - - - - - W 19 24 10 13 - - -
28/06:00am - - - - - W 22 26 12 14 - - -
28/05:30am - - - - - W 19 22 10 12 - - -
28/05:00am - - - - - W 24 28 13 15 - - -
28/04:30am - - - - - W 24 33 13 18 - - -
28/04:00am - - - - - W 19 22 10 12 - - -
28/03:30am - - - - - W 17 20 9 11 - - -
28/03:00am - - - - - WNW 17 20 9 11 - - -
28/02:30am - - - - - WNW 13 17 7 9 - - -
28/02:00am - - - - - W 15 19 8 10 - - -
28/01:30am - - - - - W 19 24 10 13 - - -
28/01:00am - - - - - W 20 26 11 14 - - -
28/12:30am - - - - - W 19 22 10 12 - - -
28/12:00am - - - - - W 15 19 8 10 - - -
 
Date/Time
EST
Temp
°C
App
Temp
°C
Dew
Point
°C
Rel
Hum
%
Delta-T
°C
Wind Press
QNH
hPa
Press
MSL
hPa
Rain since
9am
mm
Dir  Spd
km/h
Gust
km/h
Spd
kts
Gust
kts
27/11:30pm - - - - - W 15 19 8 10 - - -
27/11:00pm - - - - - WNW 17 19 9 10 - - -
27/10:30pm - - - - - W 15 17 8 9 - - -
27/10:00pm - - - - - WNW 11 13 6 7 - - -
27/09:30pm - - - - - NNW 11 13 6 7 - - -
27/09:00pm - - - - - NNW 6 11 3 6 - - -
27/08:30pm - - - - - N 13 17 7 9 - - -
27/08:00pm - - - - - N 15 19 8 10 - - -
27/07:30pm - - - - - N 17 20 9 11 - - -
27/07:00pm - - - - - N 15 20 8 11 - - -
27/06:30pm - - - - - NNE 17 24 9 13 - - -
27/06:00pm - - - - - NNE 15 20 8 11 - - -
27/05:30pm - - - - - NNE 15 19 8 10 - - -
27/05:00pm - - - - - NE 15 20 8 11 - - -
27/04:30pm - - - - - ENE 17 22 9 12 - - -
27/04:00pm - - - - - E 17 20 9 11 - - -
27/03:30pm - - - - - ENE 15 19 8 10 - - -
27/03:00pm - - - - - ENE 15 19 8 10 - - -
27/02:30pm - - - - - ENE 17 19 9 10 - - -
27/02:00pm - - - - - ENE 13 20 7 11 - - -
27/01:30pm - - - - - SW 4 9 2 5 - - -
27/01:00pm - - - - - W 7 11 4 6 - - -
27/12:30pm - - - - - W 7 9 4 5 - - -
27/12:00pm - - - - - WNW 13 15 7 8 - - -
27/11:30am - - - - - W 15 17 8 9 - - -
27/11:00am - - - - - WNW 19 22 10 12 - - -
27/10:30am - - - - - WNW 19 22 10 12 - - -
27/10:00am - - - - - W 22 28 12 15 - - -
27/09:30am - - - - - W 22 28 12 15 - - -
27/09:00am - - - - - W 24 28 13 15 - - -
27/08:30am - - - - - W 22 26 12 14 - - -
27/08:00am - - - - - W 22 28 12 15 - - -
27/07:30am - - - - - W 24 30 13 16 - - -
27/07:00am - - - - - W 26 33 14 18 - - -
27/06:30am - - - - - W 26 30 14 16 - - -
27/06:00am - - - - - W 26 32 14 17 - - -
27/05:30am - - - - - W 26 33 14 18 - - -
27/05:00am - - - - - W 24 30 13 16 - - -
27/04:30am - - - - - W 22 28 12 15 - - -
27/04:00am - - - - - W 24 32 13 17 - - -
27/03:30am - - - - - W 24 32 13 17 - - -
27/03:00am - - - - - W 24 30 13 16 - - -
27/02:30am - - - - - W 19 22 10 12 - - -
27/02:00am - - - - - W 19 24 10 13 - - -
27/01:30am - - - - - WNW 17 19 9 10 - - -
27/01:00am - - - - - SW 7 13 4 7 - - -
27/12:30am - - - - - W 13 17 7 9 - - -
27/12:00am - - - - - WNW 7 11 4 6 - - -
 
Date/Time
EST
Temp
°C
App
Temp
°C
Dew
Point
°C
Rel
Hum
%
Delta-T
°C
Wind Press
QNH
hPa
Press
MSL
hPa
Rain since
9am
mm
Dir  Spd
km/h
Gust
km/h
Spd
kts
Gust
kts
26/11:30pm - - - - - NW 6 7 3 4 - - -
26/11:00pm - - - - - NNW 6 11 3 6 - - -
26/10:30pm - - - - - WNW 9 17 5 9 - - -
26/10:00pm - - - - - NNE 2 4 1 2 - - -
26/09:30pm - - - - - SSE 15 22 8 12 - - -
26/09:00pm - - - - - SSW 9 17 5 9 - - -
26/08:30pm - - - - - S 19 26 10 14 - - -
26/08:00pm - - - - - SSE 28 41 15 22 - - -
26/07:30pm - - - - - SSE 19 41 10 22 - - -
26/07:00pm - - - - - SSW 19 26 10 14 - - -
26/06:30pm - - - - - S 22 35 12 19 - - -
26/06:00pm - - - - - S 22 35 12 19 - - -
26/05:30pm - - - - - S 17 32 9 17 - - -
26/05:00pm - - - - - S 17 26 9 14 - - -
26/04:30pm - - - - - SSE 19 30 10 16 - - -
26/04:00pm - - - - - S 19 30 10 16 - - -
26/03:30pm - - - - - S 22 32 12 17 - - -
26/03:00pm - - - - - S 20 33 11 18 - - -
26/02:30pm - - - - - S 24 35 13 19 - - -
26/02:00pm - - - - - S 20 32 11 17 - - -
26/01:30pm - - - - - S 22 41 12 22 - - -
26/01:00pm - - - - - SSW 22 35 12 19 - - -
26/12:30pm - - - - - SSW 20 33 11 18 - - -
26/12:00pm - - - - - SSW 20 33 11 18 - - -
26/11:30am - - - - - SW 22 30 12 16 - - -
26/11:00am - - - - - SSW 20 33 11 18 - - -
26/10:30am - - - - - SSW 20 32 11 17 - - -
26/10:00am - - - - - W 17 22 9 12 - - -
26/09:30am - - - - - W 20 28 11 15 - - -
26/09:00am - - - - - W 20 26 11 14 - - -
26/08:30am - - - - - W 22 32 12 17 - - -
26/08:00am - - - - - W 26 35 14 19 - - -
26/07:30am - - - - - W 32 41 17 22 - - -
26/07:00am - - - - - W 26 32 14 17 - - -
26/06:30am - - - - - W 22 30 12 16 - - -
26/06:00am - - - - - WSW 19 24 10 13 - - -
26/05:30am - - - - - W 24 30 13 16 - - -
26/05:00am - - - - - W 22 30 12 16 - - -
26/04:30am - - - - - W 20 28 11 15 - - -
26/04:00am - - - - - W 20 28 11 15 - - -
26/03:30am - - - - - W 19 28 10 15 - - -
26/03:00am - - - - - W 17 22 9 12 - - -
26/02:30am - - - - - WSW 19 35 10 19 - - -
26/02:00am - - - - - WSW 17 33 9 18 - - -
26/01:30am - - - - - W 20 26 11 14 - - -
26/01:00am - - - - - W 15 22 8 12 - - -
26/12:30am - - - - - WSW 13 19 7 10 - - -
26/12:00am - - - - - WSW 11 19 6 10 - - -
 
Date/Time
EST
Temp
°C
App
Temp
°C
Dew
Point
°C
Rel
Hum
%
Delta-T
°C
Wind Press
QNH
hPa
Press
MSL
hPa
Rain since
9am
mm
Dir  Spd
km/h
Gust
km/h
Spd
kts
Gust
kts
25/11:30pm - - - - - W 22 33 12 18 - - -
25/11:00pm - - - - - WSW 22 32 12 17 - - -
25/10:30pm - - - - - W 20 26 11 14 - - -
25/10:00pm - - - - - W 17 22 9 12 - - -
25/09:30pm - - - - - W 20 24 11 13 - - -
25/09:00pm - - - - - W 17 24 9 13 - - -
25/08:30pm - - - - - W 15 20 8 11 - - -
25/08:00pm - - - - - NW 7 7 4 4 - - -
25/07:30pm - - - - - NNW 4 4 2 2 - - -
25/07:00pm - - - - - WSW 2 2 1 1 - - -
25/06:30pm - - - - - SSW 4 6 2 3 - - -
25/06:00pm - - - - - SSW 6 11 3 6 - - -
25/05:30pm - - - - - S 6 9 3 5 - - -
25/05:00pm - - - - - SSE 7 11 4 6 - - -
25/04:30pm - - - - - SSE 15 19 8 10 - - -
25/04:00pm - - - - - S 13 22 7 12 - - -
25/03:30pm - - - - - SSE 13 22 7 12 - - -
25/03:00pm - - - - - S 15 20 8 11 - - -
25/02:30pm - - - - - SSE 17 24 9 13 - - -
25/02:00pm - - - - - S 17 26 9 14 - - -
25/01:30pm - - - - - SW 13 26 7 14 - - -
25/01:00pm - - - - - SW 17 37 9 20 - - -
25/12:30pm - - - - - WSW 22 41 12 22 - - -
25/12:07pm - - - - - WSW 28 48 15 26 - - -
25/12:00pm - - - - - SW 20 41 11 22 - - -
25/11:30am - - - - - SW 26 43 14 23 - - -
25/11:00am - - - - - WSW 17 39 9 21 - - -
25/10:30am - - - - - WSW 24 39 13 21 - - -
25/10:00am - - - - - W 22 37 12 20 - - -
25/09:30am - - - - - WSW 26 39 14 21 - - -
25/09:00am - - - - - WSW 24 37 13 20 - - -
25/08:30am - - - - - W 26 33 14 18 - - -
25/08:00am - - - - - W 24 32 13 17 - - -
25/07:30am - - - - - W 24 32 13 17 - - -
25/07:00am - - - - - W 24 30 13 16 - - -

Other Formats:

Comma delimited format used in spreadsheet applications
http://www.bom.gov.au/fwo/IDN60801/IDN60801.94769.axf

JavaScript Object Notation format (JSON) in row-major order
http://www.bom.gov.au/fwo/IDN60801/IDN60801.94769.json